Weather observations for the past three days for
COLUMBIA
Imperial (Metric)
Date Time (pdt) Wind (mph) Vis. (mi.) Weather Sky Cond. Temperature (ºF) Relative Humidity Wind Chill (°F) Heat Index (°F) Pressure Precipitation (in)
Air Dwpt 6 hour altimeter (in) sea level (mb) 1 hr 3 hr 6 hr
Max. Min.
01 12:55 Vrbl 7 G 15 10.00 Fair CLR 73.4 41 31% 30.02 0.0
01 12:15 Vrbl 3 10.00 Fair CLR 71.6 46.4 41% 30.02 0.0
01 11:55 Calm 10.00 Fair CLR 68 46.4 46% 30.03 0.0
01 11:35 Vrbl 5 10.00 Fair CLR 68 48.2 49% 30.03 0.0
01 10:55 Vrbl 6 10.00 Fair CLR 64.4 48.2 56% 30.04 0.0
01 10:35 W 6 10.00 Fair CLR 62.6 48.2 60% 30.03 0.0
01 10:15 Vrbl 5 10.00 Fair CLR 60.8 48.2 63% 30.03 0.0
01 09:35 W 7 10.00 Fair CLR 59 48.2 68% 30.03 0.0
01 08:55 Calm 10.00 Fair CLR 57.2 48.2 72% 30.01 0.0
01 08:35 Calm 10.00 Fair CLR 55.4 50 82% 30.01 0.0
01 08:15 Calm 10.00 Fair CLR 53.6 48.2 82% 30 0.0
01 07:35 Calm 10.00 Fair CLR 51.8 50 94% 29.99 0.0
01 07:15 Calm 10.00 Fair CLR 51.8 48.2 88% 29.99 0.0
01 06:55 Calm 10.00 Fair CLR 50 48.2 94% 29.98 0.0
01 06:35 Calm 10.00 A Few Clouds FEW047 FEW060 51.8 48.2 88% 29.98 0.0
01 06:15 Vrbl 6 10.00 Mostly Cloudy BKN046 BKN060 51.8 48.2 88% 29.98 0.0
01 05:55 Calm 10.00 Mostly Cloudy SCT047 BKN060 51.8 48.2 88% 29.98 0.0
01 05:35 W 6 G 13 10.00 A Few Clouds FEW048 51.8 50 94% 29.97 0.0
01 05:15 Calm 10.00 Mostly Cloudy SCT043 BKN048 51.8 48.2 88% 29.96 0.0
01 04:55 Calm 10.00 Mostly Cloudy BKN044 BKN070 51.8 48.2 88% 29.95 0.0
01 04:35 W 3 10.00 Partly Cloudy SCT044 SCT050 SCT070 51.8 48.2 88% 29.94 0.0
01 03:55 Calm 10.00 A Few Clouds FEW045 53.6 46.4 77% 29.93 0.0
01 03:35 Calm 10.00 A Few Clouds FEW047 51.8 48.2 88% 29.93 0.0
01 03:15 Calm 10.00 Fair CLR 53.6 46.4 77% 29.93 0.0
01 02:55 Calm 10.00 Partly Cloudy SCT048 SCT055 53.6 48.2 82% 29.94 0.0
01 02:35 Calm 10.00 Mostly Cloudy BKN049 53.6 48.2 82% 29.93 0.0
01 02:15 Calm 10.00 Partly Cloudy SCT042 SCT049 55.4 48.2 77% 29.94 0.0
01 01:55 Calm 10.00 Overcast SCT035 OVC042 55.4 48.2 77% 29.94 0.0
01 01:35 Calm 10.00 Overcast OVC042 55.4 50 82% 29.95 0.0
01 01:15 Calm 10.00 Mostly Cloudy FEW034 BKN043 55.4 50 82% 29.96 0.0
01 00:55 Calm 10.00 Mostly Cloudy BKN043 BKN048 57.2 50 77% 29.95 0.0
01 00:35 Calm 10.00 Overcast BKN044 OVC049 57.2 50 77% 29.95 0.0
31 23:55 Calm 10.00 Partly Cloudy SCT045 59 48.2 68% 29.95 0.0
31 23:35 Calm 10.00 Mostly Cloudy FEW034 BKN043 57.2 44.6 63% 29.94 0.0
31 23:15 Calm 10.00 Partly Cloudy SCT042 59 46.4 63% 29.94 0.0
31 22:55 Calm 10.00 Fair CLR 59 46.4 63% 29.93 0.0
31 22:15 Calm 10.00 Fair CLR 60.8 44.6 55% 29.94 0.0
31 21:55 Calm 10.00 A Few Clouds FEW050 60.8 42.8 52% 29.93 0.0
31 21:35 Calm 10.00 Partly Cloudy FEW045 SCT050 62.6 44.6 52% 29.93 0.0
31 21:15 Calm 10.00 A Few Clouds FEW044 FEW050 64.4 44.6 49% 29.93 0.0
31 20:35 Calm 10.00 Fair CLR 66.2 44.6 46% 29.92 0.0
31 19:35 Calm 10.00 Fair CLR 73.4 44.6 36% 29.91 0.0
31 18:35 SW 3 10.00 Fair CLR 77 41 28% 78 29.9 0.0
31 18:15 SW 6 10.00 Fair CLR 77 41 28% 78 29.91 0.0
31 17:35 SW 8 10.00 Fair CLR 80.6 42.8 26% 79 29.9 0.0
31 17:15 S 5 10.00 Fair CLR 80.6 42.8 26% 79 29.91 0.0
31 16:55 SW 8 10.00 Fair CLR 80.6 42.8 26% 79 29.91 0.0
31 16:35 SW 8 G 14 10.00 Fair CLR 80.6 42.8 26% 79 29.91 0.0
31 16:15 Calm 10.00 Fair CLR 80.6 39.2 23% 79 29.91 0.0
31 15:55 S 5 10.00 Fair CLR 82.4 39.2 21% 80 29.91 0.0
31 15:15 S 5 10.00 Fair CLR 82.4 39.2 21% 80 29.93 0.0
31 14:35 Vrbl 6 G 12 10.00 Fair CLR 82.4 41 23% 80 29.93 0.0
31 14:15 S 6 10.00 Fair CLR 82.4 42.8 25% 80 29.93 0.0
31 13:55 S 7 10.00 Fair CLR 80.6 44.6 28% 79 29.94 0.0
31 13:35 S 7 G 13 10.00 Fair CLR 80.6 44.6 28% 79 29.94 0.0
31 12:55 S 8 G 14 10.00 Fair CLR 80.6 46.4 30% 80 29.94 0.0
31 12:15 S 9 10.00 Fair CLR 82.4 44.6 26% 81 29.94 0.0
31 11:35 S 5 10.00 Fair CLR 80.6 44.6 28% 79 29.94 0.0
31 10:55 S 5 10.00 Fair CLR 78.8 46.4 32% 79 29.94 0.0
31 09:55 S 5 10.00 Fair CLR 77 46.4 34% 78 29.93 0.0
31 09:35 S 5 10.00 Fair CLR 77 44.6 32% 78 29.93 0.0
31 06:35 Calm 10.00 Partly Cloudy FEW046 SCT050 57.2 46.4 67% 29.91 0.0
31 06:15 Calm 10.00 Overcast FEW034 BKN046 OVC055 55.4 46.4 72% 29.91 0.0
31 05:35 Calm 10.00 Overcast BKN039 OVC046 55.4 46.4 72% 29.91 0.0
31 05:15 Calm 10.00 Overcast SCT032 BKN041 OVC047 57.2 46.4 67% 29.91 0.0
31 04:55 Calm 10.00 Overcast BKN032 OVC042 57.2 46.4 67% 29.91 0.0
31 04:35 Calm 10.00 Overcast BKN033 OVC043 55.4 46.4 72% 29.91 0.0
31 03:55 Calm 10.00 Overcast FEW033 BKN042 OVC047 57.2 46.4 67% 29.91 0.0
31 02:55 Calm 10.00 Overcast OVC070 57.2 44.6 63% 29.91 0.0
31 00:35 Calm 10.00 Overcast OVC050 59 44.6 59% 29.92 0.0
30 23:55 Calm 10.00 Overcast FEW037 SCT043 OVC050 60.8 44.6 55% 29.92 0.0
30 23:35 Calm 10.00 Overcast FEW041 OVC055 60.8 44.6 55% 29.92 0.0
30 23:15 Calm 10.00 Overcast BKN042 OVC050 60.8 44.6 55% 29.92 0.0
30 22:35 Calm 10.00 Overcast OVC050 62.6 44.6 52% 29.93 0.0
30 20:55 Calm 10.00 Overcast OVC055 68 44.6 43% 29.92 0.0
30 20:35 Calm 10.00 Overcast OVC055 69.8 46.4 43% 29.92 0.0
30 20:15 Calm 10.00 Overcast OVC055 71.6 46.4 41% 29.91 0.0
30 19:55 NE 3 10.00 Mostly Cloudy BKN055 73.4 46.4 38% 29.91 0.0
30 19:35 Calm 10.00 Fair CLR 75.2 46.4 36% 77 29.91 0.0
30 19:15 Calm 10.00 Fair CLR 78.8 42.8 28% 78 29.91 0.0
30 18:55 Calm 10.00 Fair CLR 80.6 42.8 26% 79 29.91 0.0
30 18:15 SW 5 10.00 Fair CLR 82.4 42.8 25% 80 29.91 0.0
30 17:55 S 5 10.00 Fair CLR 84.2 42.8 23% 82 29.91 0.0
30 17:35 S 7 10.00 Fair CLR 84.2 42.8 23% 82 29.91 0.0
30 17:15 Calm 10.00 Fair CLR 84.2 44.6 25% 82 29.92 0.0
30 16:55 S 5 10.00 Fair CLR 86 44.6 24% 83 29.92 0.0
30 16:35 SW 6 G 13 10.00 Fair CLR 84.2 42.8 23% 82 29.92 0.0
30 15:55 W 7 10.00 Fair CLR 86 44.6 24% 83 29.93 0.0
30 15:35 SW 5 10.00 Fair CLR 86 42.8 22% 83 29.93 0.0
30 15:15 Vrbl 7 10.00 Fair CLR 87.8 42.8 21% 84 29.94 0.0
30 14:55 S 3 10.00 Fair CLR 86 42.8 22% 83 29.95 0.0
30 14:35 S 7 G 13 10.00 Fair CLR 86 42.8 22% 83 29.95 0.0
30 14:15 S 8 10.00 Fair CLR 84.2 42.8 23% 82 29.96 0.0
30 13:35 S 8 10.00 Fair CLR 86 44.6 24% 83 29.96 0.0
30 13:15 S 7 G 14 10.00 Fair CLR 86 42.8 22% 83 29.96 0.0
30 12:55 S 8 10.00 Fair CLR 84.2 41 22% 82 29.96 0.0
30 12:35 S 7 10.00 Fair CLR 84.2 42.8 23% 82 29.96 0.0
30 12:15 S 6 10.00 Fair CLR 84.2 41 22% 82 29.97 0.0
30 11:35 S 5 10.00 Fair CLR 84.2 42.8 23% 82 29.97 0.0
30 11:15 S 5 10.00 Fair CLR 82.4 41 23% 80 29.97 0.0
30 10:55 S 3 10.00 Fair CLR 82.4 42.8 25% 80 29.97 0.0
30 10:35 S 5 10.00 Fair CLR 82.4 42.8 25% 80 29.97 0.0
30 10:15 Calm 10.00 Fair CLR 80.6 42.8 26% 79 29.96 0.0
30 09:55 Calm 10.00 Fair CLR 78.8 42.8 28% 78 29.96 0.0
30 08:55 Calm 10.00 Fair CLR 75.2 44.6 34% 77 29.96 0.0
30 08:35 Calm 10.00 Fair CLR 69.8 46.4 43% 29.97 0.0
30 08:15 Calm 10.00 Fair CLR 68 46.4 46% 29.97 0.0
30 07:35 Calm 10.00 Fair CLR 60.8 44.6 55% 29.97 0.0
30 07:15 Calm 10.00 Fair CLR 57.2 44.6 63% 29.96 0.0
30 06:15 Calm 10.00 Mostly Cloudy BKN047 57.2 44.6 63% 29.95 0.0
30 04:55 Calm 10.00 Overcast OVC042 55.4 44.6 67% 29.95 0.0
30 04:35 Calm 10.00 Mostly Cloudy BKN042 55.4 44.6 67% 29.95 0.0
30 04:15 Calm 10.00 Fair CLR 55.4 44.6 67% 29.95 0.0
30 03:55 Calm 10.00 Fair CLR 57.2 44.6 63% 29.95 0.0
30 03:35 NE 3 10.00 Fair CLR 59 44.6 59% 29.95 0.0
30 03:15 Calm 10.00 Fair CLR 55.4 42.8 63% 29.95 0.0
30 02:55 Calm 10.00 Fair CLR 57.2 42.8 59% 29.95 0.0
30 02:35 Calm 10.00 Fair CLR 57.2 42.8 59% 29.95 0.0
30 02:15 Calm 10.00 Fair CLR 57.2 42.8 59% 29.96 0.0
30 01:55 Calm 10.00 Fair CLR 57.2 42.8 59% 29.96 0.0
30 01:35 Calm 10.00 Fair CLR 57.2 42.8 59% 29.96 0.0
30 01:15 Calm 10.00 Fair CLR 57.2 42.8 59% 29.97 0.0
30 00:55 Calm 10.00 Fair CLR 57.2 42.8 59% 29.97 0.0
30 00:35 Calm 10.00 Fair CLR 57.2 42.8 59% 29.97 0.0
30 00:15 Calm 10.00 Fair CLR 57.2 42.8 59% 29.96 0.0
29 23:35 Calm 10.00 Fair CLR 59 41 51% 29.97 0.0
29 22:55 Calm 10.00 Fair CLR 60.8 41 48% 29.97 0.0
29 22:35 Calm 10.00 Fair CLR 62.6 41 45% 29.97 0.0
29 21:55 Calm 10.00 Fair CLR 62.6 42.8 49% 29.97 0.0
29 21:35 Calm 10.00 Fair CLR 64.4 42.8 46% 29.97 0.0
29 21:15 Calm 10.00 Fair CLR 66.2 42.8 43% 29.97 0.0
29 20:55 Calm 10.00 Fair CLR 68 42.8 40% 29.96 0.0
29 20:35 Calm 10.00 Fair CLR 68 44.6 43% 29.96 0.0
29 20:15 Calm 10.00 Fair CLR 69.8 44.6 40% 29.95 0.0
29 19:35 Calm 10.00 Fair CLR 77 41 28% 78 29.95 0.0
29 18:55 SW 5 10.00 Fair CLR 82.4 41 23% 80 29.95 0.0
29 17:55 SW 7 10.00 Fair CLR 84.2 42.8 23% 82 29.95 0.0
29 15:55 SW 8 10.00 Fair CLR 87.8 42.8 21% 84 29.96 0.0
29 15:15 SW 7 G 15 10.00 Fair CLR 87.8 42.8 21% 84 29.98 0.0
Date Time (pdt) Wind (mph) Vis. (mi.) Weather Sky Cond. Air Dwpt Max. Min. Relative Humidity Wind Chill (°F) Heat Index (°F) altimeter (in) sea level (mb) 1 hr 3 hr 6 hr
6 hour
Temperature (ºF) Pressure Precipitation (in)